Time;durP1;ratioP1;P1;durP2;ratioP2;P2;SDS_P1;SDS_P2;PMS_P1;PMS_P2;Temp;Humidity;BMP_temperature;BMP_pressure;BME280_temperature;BME280_humidity;BME280_pressure;Samples;Min_cycle;Max_cycle;Signal;HPM_P1;HPM_P2
2022/03/10 00:02:25;;;;;;;17.25;10.65;;;-2.20;99.90;;;;;;5049784;28;20037;-58
2022/03/10 00:04:51;;;;;;;15.00;9.43;;;-2.20;99.90;;;;;;5050894;28;20025;-59
2022/03/10 00:07:16;;;;;;;15.68;9.73;;;-2.20;99.90;;;;;;5050819;28;20391;-59
2022/03/10 00:09:42;;;;;;;14.60;9.57;;;-2.20;99.90;;;;;;5050990;28;20032;-56
2022/03/10 00:12:08;;;;;;;16.38;10.75;;;-2.20;99.90;;;;;;5051470;28;20361;-59
2022/03/10 00:14:33;;;;;;;16.30;10.75;;;-2.20;99.90;;;;;;5051365;28;20084;-59
2022/03/10 00:16:59;;;;;;;17.88;10.20;;;-2.20;99.90;;;;;;5051636;28;20031;-59
2022/03/10 00:19:25;;;;;;;14.15;10.05;;;-2.30;99.90;;;;;;5051630;28;20017;-59
2022/03/10 00:21:51;;;;;;;15.90;11.25;;;-2.30;99.90;;;;;;5051724;28;20108;-59
2022/03/10 00:24:18;;;;;;;16.73;11.30;;;-2.50;99.90;;;;;;5051577;28;20464;-58
2022/03/10 00:26:45;;;;;;;15.55;10.38;;;-2.50;99.90;;;;;;5051230;28;20021;-58
2022/03/10 00:29:11;;;;;;;15.80;10.10;;;-2.50;99.90;;;;;;5051274;28;20175;-59
2022/03/10 00:31:37;;;;;;;14.25;10.02;;;-2.40;99.90;;;;;;5048664;28;20137;-59
2022/03/10 00:34:03;;;;;;;12.95;9.93;;;-2.40;99.90;;;;;;5050266;28;20061;-58
2022/03/10 00:36:29;;;;;;;15.15;9.93;;;-2.40;99.90;;;;;;5048946;28;20052;-58
2022/03/10 00:38:55;;;;;;;15.98;10.18;;;-2.40;99.90;;;;;;5049998;28;20025;-59
2022/03/10 00:41:21;;;;;;;14.25;10.48;;;-2.50;99.90;;;;;;5050831;28;20028;-56
2022/03/10 00:43:47;;;;;;;15.40;9.90;;;-2.50;99.90;;;;;;5053320;28;20035;-58
2022/03/10 00:46:12;;;;;;;15.75;10.63;;;-2.50;99.90;;;;;;5053329;28;20040;-54
2022/03/10 00:48:38;;;;;;;13.98;9.57;;;-2.50;99.90;;;;;;5054229;28;20060;-56
2022/03/10 00:51:04;;;;;;;16.98;10.70;;;-2.60;99.90;;;;;;5054817;28;20464;-57
2022/03/10 00:53:30;;;;;;;17.27;11.18;;;-2.60;99.90;;;;;;5055185;28;20029;-57
2022/03/10 00:55:56;;;;;;;11.95;9.25;;;-2.70;99.90;;;;;;5055095;28;20032;-57
2022/03/10 00:58:21;;;;;;;13.35;10.10;;;-2.70;99.90;;;;;;5055215;28;20087;-54
2022/03/10 01:00:47;;;;;;;16.17;10.48;;;-2.70;99.90;;;;;;5055062;28;20052;-56
2022/03/10 01:03:13;;;;;;;16.58;10.65;;;-2.70;99.90;;;;;;5054284;28;20032;-55
2022/03/10 01:05:38;;;;;;;14.98;10.75;;;-2.70;99.90;;;;;;5055023;28;20082;-55
2022/03/10 01:08:04;;;;;;;17.17;11.50;;;-2.70;99.90;;;;;;5055274;28;20376;-56
2022/03/10 01:10:30;;;;;;;13.25;9.95;;;-2.70;99.90;;;;;;5055130;28;20056;-56
2022/03/10 01:12:56;;;;;;;13.63;10.57;;;-2.80;99.90;;;;;;5054687;28;20417;-58
2022/03/10 01:15:25;;;;;;;15.70;10.57;;;-2.70;99.90;;;;;;5054938;28;20047;-56
2022/03/10 01:17:51;;;;;;;15.18;10.98;;;-2.70;99.90;;;;;;5054941;28;20028;-52
2022/03/10 01:20:19;;;;;;;14.02;10.25;;;-2.70;99.90;;;;;;5054986;28;20092;-55
2022/03/10 01:22:45;;;;;;;14.40;10.38;;;-2.80;99.90;;;;;;5054474;28;20025;-56
2022/03/10 01:25:11;;;;;;;28.88;10.88;;;-2.80;99.90;;;;;;5053917;28;20063;-56
2022/03/10 01:27:38;;;;;;;15.77;11.13;;;-2.80;99.90;;;;;;5052618;28;20203;-59
2022/03/10 01:30:05;;;;;;;14.02;10.55;;;-2.80;99.90;;;;;;5054497;28;20159;-58
2022/03/10 01:32:31;;;;;;;18.65;10.25;;;-2.90;99.90;;;;;;5054609;28;20458;-59
2022/03/10 01:34:57;;;;;;;17.63;10.88;;;-3.00;99.90;;;;;;5054565;28;20108;-57
2022/03/10 01:37:22;;;;;;;15.63;10.75;;;-3.00;99.90;;;;;;5054684;28;20021;-59
2022/03/10 01:39:48;;;;;;;21.58;12.52;;;-3.00;99.90;;;;;;5054327;28;20090;-58
2022/03/10 01:42:14;;;;;;;16.25;11.65;;;-2.90;99.90;;;;;;5054554;28;20017;-57
2022/03/10 01:44:40;;;;;;;17.85;10.85;;;-2.90;99.90;;;;;;5054075;28;20021;-57
2022/03/10 01:47:06;;;;;;;17.23;11.88;;;-2.90;99.90;;;;;;5054034;28;20009;-56
2022/03/10 01:49:35;;;;;;;18.40;12.40;;;-2.90;99.90;;;;;;5053876;28;20647;-56
2022/03/10 01:52:01;;;;;;;19.42;11.77;;;-2.90;99.90;;;;;;5054010;28;20405;-57
2022/03/10 01:54:27;;;;;;;19.83;11.70;;;-2.90;99.90;;;;;;5052778;28;20088;-58
2022/03/10 01:56:53;;;;;;;20.52;10.98;;;-2.90;99.90;;;;;;5053882;28;20496;-58
2022/03/10 01:59:19;;;;;;;19.77;11.75;;;-2.90;99.90;;;;;;5053884;28;20062;-53
2022/03/10 02:01:45;;;;;;;22.00;11.80;;;-3.00;99.90;;;;;;5053805;28;20021;-56
2022/03/10 02:04:11;;;;;;;16.95;11.80;;;-3.00;99.90;;;;;;5053819;28;20110;-57
2022/03/10 02:06:37;;;;;;;18.40;10.82;;;-3.00;99.90;;;;;;5054239;28;20052;-59
2022/03/10 02:12:08;;;;;;;21.20;10.88;;;-3.10;99.90;;;;;;5031494;28;20405;-56
2022/03/10 02:17:21;;;;;;;25.05;13.77;;;-3.10;99.90;;;;;;5044511;28;20055;-57
2022/03/10 02:19:49;;;;;;;20.05;12.40;;;-3.10;99.90;;;;;;5053073;28;20028;-57
2022/03/10 02:22:15;;;;;;;21.63;13.18;;;-3.10;99.90;;;;;;5053560;28;20082;-58
2022/03/10 02:24:44;;;;;;;22.80;13.40;;;-3.10;99.90;;;;;;5053029;28;20025;-54
2022/03/10 02:27:27;;;;;;;20.05;13.77;;;-3.10;99.90;;;;;;5053299;28;20021;-56
2022/03/10 02:30:00;;;;;;;27.00;14.60;;;-3.10;99.90;;;;;;5051866;28;20056;-55
2022/03/10 02:32:26;;;;;;;19.40;12.45;;;-3.10;99.90;;;;;;5053660;28;20112;-53
2022/03/10 02:34:53;;;;;;;19.20;11.23;;;-3.10;99.90;;;;;;5051160;28;20037;-56
2022/03/10 02:37:19;;;;;;;19.55;12.18;;;-3.10;99.90;;;;;;5051019;28;20025;-56
2022/03/10 02:39:46;;;;;;;22.65;13.10;;;-3.10;99.90;;;;;;5052039;28;20025;-56
2022/03/10 02:42:15;;;;;;;22.98;12.77;;;-3.20;99.90;;;;;;5052125;28;20444;-54
2022/03/10 02:44:49;;;;;;;17.63;12.68;;;-3.30;99.90;;;;;;5051905;28;20048;-55
2022/03/10 02:47:15;;;;;;;29.17;13.18;;;-3.30;99.90;;;;;;5052124;28;20032;-56
2022/03/10 02:49:41;;;;;;;20.05;12.23;;;-3.30;99.90;;;;;;5052619;28;20483;-56
2022/03/10 02:52:08;;;;;;;21.13;13.23;;;-3.40;99.90;;;;;;5053120;28;20033;-56
2022/03/10 02:54:34;;;;;;;18.13;11.65;;;-3.40;99.90;;;;;;5051704;28;20380;-57
2022/03/10 02:57:00;;;;;;;20.45;12.60;;;-3.40;99.90;;;;;;5053067;28;20040;-57
2022/03/10 02:59:26;;;;;;;26.13;15.02;;;-3.40;99.90;;;;;;5052968;28;20024;-56
2022/03/10 03:01:52;;;;;;;24.20;13.27;;;-3.40;99.90;;;;;;5052990;28;20033;-55
2022/03/10 03:04:18;;;;;;;22.38;15.82;;;-3.40;99.90;;;;;;5052714;28;20055;-58
2022/03/10 03:06:44;;;;;;;25.25;14.43;;;-3.40;99.90;;;;;;5052087;28;20064;-59
2022/03/10 03:09:10;;;;;;;26.05;14.02;;;-3.40;99.90;;;;;;5052429;28;20025;-55
2022/03/10 03:11:35;;;;;;;23.20;12.18;;;-3.40;99.90;;;;;;5052298;28;20028;-58
2022/03/10 03:14:01;;;;;;;21.77;12.40;;;-3.40;99.90;;;;;;5052155;28;20040;-57
2022/03/10 03:16:28;;;;;;;17.63;12.70;;;-3.40;99.90;;;;;;5052056;28;20117;-56
2022/03/10 03:18:54;;;;;;;20.77;12.23;;;-3.50;99.90;;;;;;5052672;28;20439;-58
2022/03/10 03:21:20;;;;;;;21.60;12.07;;;-3.50;99.90;;;;;;5051362;28;20021;-58
2022/03/10 03:23:46;;;;;;;16.45;11.40;;;-3.50;99.90;;;;;;5051111;28;20032;-58
2022/03/10 03:26:12;;;;;;;18.63;12.15;;;-3.50;99.90;;;;;;5052605;28;20116;-58
2022/03/10 03:28:38;;;;;;;18.85;11.88;;;-3.50;99.90;;;;;;5051950;28;20040;-55
2022/03/10 03:31:04;;;;;;;19.40;11.35;;;-3.50;99.90;;;;;;5051789;28;20017;-58
2022/03/10 03:33:31;;;;;;;19.60;12.27;;;-3.60;99.90;;;;;;5051071;28;20029;-54
2022/03/10 03:35:57;;;;;;;21.52;11.85;;;-3.60;99.90;;;;;;5050764;28;20068;-55
2022/03/10 03:38:23;;;;;;;20.30;12.43;;;-3.60;99.90;;;;;;5051892;28;20032;-56
2022/03/10 03:40:48;;;;;;;21.30;13.25;;;-3.60;99.90;;;;;;5051072;28;20021;-59
2022/03/10 03:43:15;;;;;;;22.92;12.75;;;-3.50;99.90;;;;;;5051111;28;20021;-56
2022/03/10 03:45:40;;;;;;;20.75;12.88;;;-3.60;99.90;;;;;;5051566;28;20021;-56
2022/03/10 03:48:06;;;;;;;19.67;12.65;;;-3.50;99.90;;;;;;5051744;28;20476;-57
2022/03/10 03:50:31;;;;;;;19.75;12.38;;;-3.50;99.90;;;;;;5051811;28;20486;-55
2022/03/10 03:52:57;;;;;;;19.50;12.40;;;-3.50;99.90;;;;;;5051042;28;20044;-57
2022/03/10 03:55:23;;;;;;;19.25;12.60;;;-3.60;99.90;;;;;;5050324;28;20025;-59
2022/03/10 03:57:48;;;;;;;20.38;11.13;;;-3.60;99.90;;;;;;5050647;28;20368;-58
2022/03/10 04:00:15;;;;;;;20.80;13.32;;;-3.60;99.90;;;;;;5051238;28;20032;-56
2022/03/10 04:02:42;;;;;;;18.33;11.27;;;-3.60;99.90;;;;;;5051463;28;20029;-54
2022/03/10 04:05:08;;;;;;;17.25;12.10;;;-3.60;99.90;;;;;;5051939;28;20033;-57
2022/03/10 04:07:35;;;;;;;18.95;11.77;;;-3.70;99.90;;;;;;5051600;28;20029;-54
2022/03/10 04:10:01;;;;;;;23.73;11.80;;;-3.80;99.90;;;;;;5051842;28;20020;-55
2022/03/10 04:12:26;;;;;;;21.50;11.75;;;-3.90;99.90;;;;;;5051365;28;20039;-55
2022/03/10 04:14:52;;;;;;;22.63;12.70;;;-3.90;99.90;;;;;;5051789;28;20029;-55
2022/03/10 04:17:18;;;;;;;21.98;11.93;;;-3.90;99.90;;;;;;5051034;28;20075;-53
2022/03/10 04:19:43;;;;;;;20.02;13.82;;;-3.90;99.90;;;;;;5051844;28;20040;-55
2022/03/10 04:22:09;;;;;;;17.67;11.43;;;-3.90;99.90;;;;;;5051509;28;20116;-55
2022/03/10 04:24:35;;;;;;;17.90;12.23;;;-3.90;99.90;;;;;;5051592;28;20096;-53
2022/03/10 04:27:01;;;;;;;25.85;13.15;;;-4.00;99.90;;;;;;5050944;28;20021;-58
2022/03/10 04:29:26;;;;;;;23.00;11.98;;;-4.00;99.90;;;;;;5050088;28;20531;-59
2022/03/10 04:31:52;;;;;;;27.90;13.02;;;-4.00;99.90;;;;;;5051078;28;20100;-58
2022/03/10 04:34:18;;;;;;;22.65;13.55;;;-3.90;99.90;;;;;;5051352;28;20017;-58
2022/03/10 04:36:43;;;;;;;22.55;12.38;;;-3.90;99.90;;;;;;5049981;28;20028;-55
2022/03/10 04:39:09;;;;;;;32.78;12.80;;;-3.90;99.90;;;;;;5051331;28;20075;-57
2022/03/10 04:41:35;;;;;;;21.52;12.18;;;-4.00;99.90;;;;;;5051386;28;20500;-55
2022/03/10 04:44:01;;;;;;;26.40;12.95;;;-4.00;99.90;;;;;;5051340;28;20472;-56
2022/03/10 04:46:27;;;;;;;19.88;11.40;;;-4.00;99.90;;;;;;5050656;28;20025;-57
2022/03/10 04:48:52;;;;;;;26.38;12.05;;;-3.90;99.90;;;;;;5050530;28;20082;-55
2022/03/10 04:51:18;;;;;;;29.75;12.10;;;-4.00;99.90;;;;;;5050909;28;20036;-57
2022/03/10 04:53:44;;;;;;;19.30;11.38;;;-4.00;99.90;;;;;;5050306;28;20025;-58
2022/03/10 04:56:10;;;;;;;28.33;12.18;;;-4.00;99.90;;;;;;5050400;28;20033;-58
2022/03/10 04:58:36;;;;;;;24.70;12.13;;;-4.00;99.90;;;;;;5050360;28;20056;-58
2022/03/10 05:01:01;;;;;;;24.67;14.05;;;-4.10;99.90;;;;;;5050575;28;20013;-58
2022/03/10 05:03:27;;;;;;;25.60;12.98;;;-4.20;99.90;;;;;;5059460;28;20060;-58
2022/03/10 05:05:53;;;;;;;27.73;11.70;;;-4.20;99.90;;;;;;5070326;28;20025;-57
2022/03/10 05:08:18;;;;;;;19.65;11.90;;;-4.10;99.90;;;;;;5070890;28;20047;-58
2022/03/10 05:10:44;;;;;;;26.05;12.75;;;-4.10;99.90;;;;;;5070746;28;20396;-56
2022/03/10 05:13:10;;;;;;;17.98;11.30;;;-4.10;99.90;;;;;;5070778;28;20045;-56
2022/03/10 05:15:36;;;;;;;29.30;11.68;;;-4.10;99.90;;;;;;5070189;28;20024;-55
2022/03/10 05:18:05;;;;;;;22.98;12.55;;;-4.20;99.90;;;;;;5069677;28;20100;-58
2022/03/10 05:20:31;;;;;;;29.75;11.93;;;-4.20;99.90;;;;;;5070585;28;20024;-58
2022/03/10 05:22:59;;;;;;;31.35;11.07;;;-4.20;99.90;;;;;;5070921;28;20095;-57
2022/03/10 05:25:31;;;;;;;22.58;13.27;;;-4.20;99.90;;;;;;5070008;28;20348;-58
2022/03/10 05:27:57;;;;;;;27.60;14.40;;;-4.20;99.90;;;;;;5070894;28;20025;-58
2022/03/10 05:30:22;;;;;;;24.98;11.68;;;-4.20;99.90;;;;;;5072695;28;20047;-58
2022/03/10 05:32:49;;;;;;;26.00;12.23;;;-4.20;99.90;;;;;;5074487;28;20109;-59
2022/03/10 05:35:16;;;;;;;21.88;12.52;;;-4.20;99.90;;;;;;5074332;28;20032;-58
2022/03/10 05:37:43;;;;;;;25.30;12.90;;;-4.20;99.90;;;;;;5074075;28;20031;-57
2022/03/10 05:40:11;;;;;;;26.73;12.73;;;-4.20;99.90;;;;;;5074080;28;20025;-57
2022/03/10 05:42:38;;;;;;;25.75;12.40;;;-4.20;99.90;;;;;;5074220;28;20027;-58
2022/03/10 05:45:04;;;;;;;22.98;13.10;;;-4.20;99.90;;;;;;5074453;28;20044;-55
2022/03/10 05:47:30;;;;;;;24.55;13.00;;;-4.20;99.90;;;;;;5073994;28;20039;-56
2022/03/10 05:49:56;;;;;;;22.17;12.98;;;-4.20;99.90;;;;;;5074251;28;20405;-57
2022/03/10 05:52:21;;;;;;;30.88;13.77;;;-4.20;99.90;;;;;;5074189;28;20393;-56
2022/03/10 05:54:47;;;;;;;21.73;12.75;;;-4.20;99.90;;;;;;5074053;28;20099;-58
2022/03/10 05:57:13;;;;;;;34.50;12.77;;;-4.20;99.90;;;;;;5074131;28;20021;-58
2022/03/10 05:59:38;;;;;;;33.90;13.75;;;-4.10;99.90;;;;;;5073728;28;20024;-59
2022/03/10 06:02:04;;;;;;;26.50;12.63;;;-4.10;99.90;;;;;;5073663;28;20016;-57
2022/03/10 06:04:30;;;;;;;23.13;12.45;;;-4.00;99.90;;;;;;5071951;28;20021;-58
2022/03/10 06:06:55;;;;;;;20.60;11.52;;;-4.00;99.90;;;;;;5073136;28;20035;-59
2022/03/10 06:09:21;;;;;;;22.88;12.20;;;-3.90;99.90;;;;;;5073331;28;20498;-59
2022/03/10 06:11:47;;;;;;;25.50;13.27;;;-3.80;99.90;;;;;;5073651;28;20097;-58
2022/03/10 06:14:12;;;;;;;35.22;12.85;;;-3.70;99.90;;;;;;5073143;28;20056;-58
2022/03/10 06:16:39;;;;;;;28.08;12.90;;;-3.70;99.90;;;;;;5072006;28;20028;-59
2022/03/10 06:19:05;;;;;;;24.58;14.30;;;-3.50;99.90;;;;;;5071569;28;20019;-59
2022/03/10 06:21:31;;;;;;;34.50;12.98;;;-3.50;99.90;;;;;;5072015;28;20025;-59
2022/03/10 06:23:56;;;;;;;24.40;13.82;;;-3.40;99.90;;;;;;5071842;28;20024;-59
2022/03/10 06:26:22;;;;;;;24.73;14.95;;;-3.30;99.90;;;;;;5073682;28;20107;-58
2022/03/10 06:28:48;;;;;;;24.92;14.20;;;-3.20;99.90;;;;;;5073436;28;20024;-58
2022/03/10 06:31:14;;;;;;;34.10;14.27;;;-3.10;99.90;;;;;;5073425;28;20031;-57
2022/03/10 06:33:39;;;;;;;36.50;18.52;;;-3.00;99.90;;;;;;5073249;28;20400;-59
2022/03/10 06:36:05;;;;;;;70.70;30.60;;;-3.00;99.90;;;;;;5072495;28;20025;-59
2022/03/10 06:38:32;;;;;;;53.55;24.63;;;-2.90;99.90;;;;;;5072951;28;20074;-58
2022/03/10 06:40:58;;;;;;;68.22;27.10;;;-2.80;99.90;;;;;;5071211;28;20028;-59
2022/03/10 06:43:24;;;;;;;145.55;62.42;;;-2.70;99.90;;;;;;5072548;28;20486;-59
2022/03/10 06:45:49;;;;;;;110.95;50.90;;;-2.60;99.90;;;;;;5072053;28;20061;-57
2022/03/10 06:48:15;;;;;;;88.03;42.22;;;-2.40;99.90;;;;;;5071620;28;20013;-58
2022/03/10 06:50:41;;;;;;;69.88;34.58;;;-2.30;99.90;;;;;;5071720;28;20028;-58
2022/03/10 06:53:06;;;;;;;57.20;31.08;;;-2.10;99.90;;;;;;5071961;28;20123;-58
2022/03/10 06:55:32;;;;;;;61.30;32.97;;;-2.00;99.90;;;;;;5072400;28;20086;-59
2022/03/10 06:57:58;;;;;;;66.80;33.20;;;-1.80;99.90;;;;;;5072719;28;20032;-59
2022/03/10 07:00:24;;;;;;;58.47;31.38;;;-1.70;99.90;;;;;;5071231;28;20025;-59
2022/03/10 07:02:52;;;;;;;41.85;24.20;;;-1.50;99.90;;;;;;5072677;28;20452;-59
2022/03/10 07:05:18;;;;;;;43.38;23.65;;;-1.40;99.90;;;;;;5072800;28;20021;-59
2022/03/10 07:07:43;;;;;;;39.92;18.77;;;-1.20;99.90;;;;;;5072360;28;20541;-59
2022/03/10 07:10:10;;;;;;;27.25;15.75;;;-1.10;99.90;;;;;;5072581;28;20029;-59
2022/03/10 07:12:37;;;;;;;29.15;17.60;;;-0.90;99.90;;;;;;5070814;28;20050;-59
2022/03/10 07:15:10;;;;;;;40.97;19.50;;;-0.70;99.90;;;;;;5072426;28;20025;-59
2022/03/10 07:17:37;;;;;;;41.38;21.52;;;-0.60;99.90;;;;;;5072280;28;20024;-59
2022/03/10 07:20:03;;;;;;;47.47;24.13;;;-0.50;99.90;;;;;;5072541;28;20028;-59
2022/03/10 07:22:29;;;;;;;39.13;20.40;;;-0.40;99.90;;;;;;5072354;28;20024;-59
2022/03/10 07:24:54;;;;;;;26.25;16.90;;;-0.30;99.90;;;;;;5072456;28;20039;-59
2022/03/10 07:27:20;;;;;;;17.95;10.77;;;-0.10;99.90;;;;;;5072255;28;20020;-59
2022/03/10 07:29:46;;;;;;;20.38;12.15;;;0.00;99.90;;;;;;5072248;28;20025;-59
2022/03/10 07:32:12;;;;;;;19.92;11.05;;;0.20;99.90;;;;;;5072165;28;20017;-59
2022/03/10 07:34:38;;;;;;;21.63;10.63;;;0.30;99.90;;;;;;5071827;28;20027;-59
2022/03/10 07:37:04;;;;;;;22.85;11.93;;;0.40;99.90;;;;;;5072451;28;20672;-59
2022/03/10 07:39:29;;;;;;;23.35;12.48;;;0.50;99.90;;;;;;5071896;28;20020;-59
2022/03/10 07:41:55;;;;;;;17.27;11.32;;;0.60;99.90;;;;;;5072064;28;20422;-59
2022/03/10 07:44:21;;;;;;;19.10;12.10;;;0.80;99.90;;;;;;5072061;28;20577;-59
2022/03/10 07:46:47;;;;;;;18.88;12.52;;;0.90;99.90;;;;;;5071942;28;20083;-59
2022/03/10 07:49:13;;;;;;;16.90;10.52;;;1.10;99.90;;;;;;5071906;28;20025;-59
2022/03/10 07:51:43;;;;;;;15.75;10.73;;;1.20;99.90;;;;;;5071262;28;20032;-59
2022/03/10 07:54:09;;;;;;;18.70;9.30;;;1.40;99.90;;;;;;5071385;28;20093;-58
2022/03/10 07:56:35;;;;;;;19.15;11.23;;;1.60;99.90;;;;;;5071713;28;20043;-59
2022/03/10 07:59:00;;;;;;;17.60;9.55;;;1.80;99.90;;;;;;5071916;28;20012;-59
2022/03/10 08:01:26;;;;;;;14.52;10.30;;;1.90;99.90;;;;;;5071802;28;20048;-59
2022/03/10 08:03:52;;;;;;;19.25;11.77;;;2.10;99.90;;;;;;5071799;28;20029;-59
2022/03/10 08:06:17;;;;;;;18.63;11.70;;;2.20;99.90;;;;;;5072026;28;20031;-59
2022/03/10 08:08:46;;;;;;;30.15;13.25;;;2.30;99.90;;;;;;5071644;28;20028;-59
2022/03/10 08:11:12;;;;;;;41.15;14.23;;;2.50;99.90;;;;;;5071839;28;20036;-59
2022/03/10 08:13:37;;;;;;;21.67;7.88;;;2.70;99.90;;;;;;5071305;28;20113;-59
2022/03/10 08:16:03;;;;;;;21.02;12.75;;;3.10;99.90;;;;;;5071150;28;20232;-59
2022/03/10 08:18:30;;;;;;;14.43;8.32;;;3.30;99.90;;;;;;5071180;28;20020;-60
2022/03/10 08:20:59;;;;;;;9.30;6.72;;;3.60;99.90;;;;;;5071653;28;20021;-59
2022/03/10 08:23:28;;;;;;;13.65;7.18;;;3.80;99.50;;;;;;5071065;28;20025;-60
2022/03/10 08:25:54;;;;;;;22.33;12.07;;;4.00;98.70;;;;;;5070743;28;20028;-59
2022/03/10 08:28:20;;;;;;;10.45;7.05;;;4.20;98.00;;;;;;5071095;28;20646;-60
2022/03/10 08:30:46;;;;;;;10.43;6.85;;;4.40;97.60;;;;;;5070946;28;20119;-60
2022/03/10 08:33:11;;;;;;;11.52;7.07;;;4.50;97.90;;;;;;5071055;28;20031;-59
2022/03/10 08:35:37;;;;;;;10.85;6.75;;;4.60;97.50;;;;;;5071054;28;20356;-59
2022/03/10 08:38:03;;;;;;;8.70;6.25;;;4.60;96.80;;;;;;5071191;28;20032;-59
2022/03/10 08:40:29;;;;;;;9.65;7.00;;;4.80;97.20;;;;;;5069456;28;20021;-60
2022/03/10 08:42:56;;;;;;;11.75;7.43;;;4.70;95.60;;;;;;5069217;28;20027;-59
2022/03/10 08:45:25;;;;;;;13.48;8.15;;;4.70;95.40;;;;;;5070338;28;20032;-59
2022/03/10 08:47:55;;;;;;;13.93;7.32;;;4.90;94.90;;;;;;5070624;28;20016;-59
2022/03/10 08:50:24;;;;;;;11.57;8.10;;;4.90;94.70;;;;;;5070249;28;20021;-58
2022/03/10 08:52:50;;;;;;;17.33;9.10;;;5.10;94.70;;;;;;5070615;28;20052;-58
2022/03/10 08:55:16;;;;;;;16.63;7.65;;;5.10;93.60;;;;;;5070400;28;20029;-59
2022/03/10 08:57:42;;;;;;;16.23;9.02;;;5.20;94.50;;;;;;5070381;28;20021;-59
2022/03/10 09:00:10;;;;;;;15.27;9.15;;;5.30;95.20;;;;;;5070445;28;20025;-60
2022/03/10 09:02:35;;;;;;;19.63;9.35;;;5.50;94.20;;;;;;5070742;28;20017;-60
2022/03/10 09:05:01;;;;;;;15.75;8.48;;;5.50;92.40;;;;;;5074153;28;20674;-59
2022/03/10 09:07:27;;;;;;;18.20;9.77;;;5.40;92.00;;;;;;5074858;28;20058;-59
2022/03/10 09:09:52;;;;;;;19.10;10.55;;;5.20;91.80;;;;;;5074308;28;20025;-59
2022/03/10 09:12:18;;;;;;;18.05;9.38;;;5.30;92.40;;;;;;5074967;28;20065;-59
2022/03/10 09:14:44;;;;;;;13.20;8.27;;;5.30;92.50;;;;;;5074622;28;20636;-59
2022/03/10 09:17:10;;;;;;;17.17;9.15;;;5.60;92.50;;;;;;5074810;28;20017;-58
2022/03/10 09:19:36;;;;;;;17.23;10.02;;;5.80;92.90;;;;;;5074718;28;20065;-60
2022/03/10 09:22:02;;;;;;;13.27;8.98;;;6.00;92.20;;;;;;5074820;28;20116;-59
2022/03/10 09:24:28;;;;;;;17.58;10.70;;;6.30;91.90;;;;;;5074683;28;20027;-60
2022/03/10 09:26:53;;;;;;;15.73;8.85;;;6.30;90.70;;;;;;5074788;28;20017;-59
2022/03/10 09:29:19;;;;;;;18.67;10.13;;;6.50;90.70;;;;;;5074726;28;20387;-60
2022/03/10 09:31:45;;;;;;;15.27;9.98;;;6.50;89.90;;;;;;5074511;28;20036;-59
2022/03/10 09:34:10;;;;;;;23.63;9.48;;;6.80;90.10;;;;;;5074585;28;20668;-59
2022/03/10 09:36:36;;;;;;;18.17;10.07;;;6.90;87.20;;;;;;5074172;28;20028;-59
2022/03/10 09:39:02;;;;;;;17.23;10.95;;;6.90;88.50;;;;;;5074421;28;20039;-59
2022/03/10 09:41:28;;;;;;;13.10;9.60;;;7.00;86.90;;;;;;5074145;28;20395;-59
2022/03/10 09:43:55;;;;;;;17.88;12.25;;;7.10;87.00;;;;;;5074294;28;20024;-59
2022/03/10 09:46:21;;;;;;;12.82;9.43;;;7.30;87.10;;;;;;5073781;28;20031;-59
2022/03/10 09:48:47;;;;;;;23.83;10.10;;;7.70;87.30;;;;;;5072331;28;20032;-59
2022/03/10 09:51:14;;;;;;;15.40;10.23;;;7.80;86.90;;;;;;5073498;28;20043;-60
2022/03/10 09:53:39;;;;;;;14.10;9.50;;;7.90;81.50;;;;;;5072306;28;20032;-59
2022/03/10 09:56:06;;;;;;;17.77;12.20;;;8.00;81.50;;;;;;5073291;28;20075;-59
2022/03/10 09:58:32;;;;;;;21.73;9.40;;;7.90;79.70;;;;;;5071799;28;20475;-60
2022/03/10 10:00:59;;;;;;;16.55;10.05;;;8.10;80.00;;;;;;5073589;28;20082;-59
2022/03/10 10:03:25;;;;;;;12.20;8.95;;;8.20;77.60;;;;;;5074003;28;20016;-60
2022/03/10 10:05:57;;;;;;;15.77;9.75;;;8.30;75.70;;;;;;5073913;28;20074;-59
2022/03/10 10:08:22;;;;;;;16.08;9.43;;;8.30;76.50;;;;;;5074007;28;20036;-59
2022/03/10 10:10:50;;;;;;;12.15;9.18;;;8.50;78.00;;;;;;5073787;28;20028;-59
2022/03/10 10:13:37;;;;;;;17.38;8.45;;;8.70;76.50;;;;;;5073745;28;20067;-60
2022/03/10 10:16:07;;;;;;;15.18;9.52;;;8.90;76.90;;;;;;5072972;28;20024;-59
2022/03/10 10:18:36;;;;;;;24.85;9.20;;;9.00;73.60;;;;;;5073861;28;20107;-60
2022/03/10 10:21:05;;;;;;;19.80;9.25;;;9.30;75.00;;;;;;5073851;28;20016;-60
2022/03/10 10:23:33;;;;;;;15.52;9.02;;;9.40;73.20;;;;;;5072367;28;20472;-60
2022/03/10 10:26:08;;;;;;;17.80;8.88;;;9.40;70.50;;;;;;5073792;28;20033;-60
2022/03/10 10:28:37;;;;;;;13.38;8.85;;;9.60;72.20;;;;;;5073577;28;20025;-60
2022/03/10 10:31:15;;;;;;;14.85;9.77;;;9.70;70.40;;;;;;5073722;28;20063;-60
2022/03/10 10:33:43;;;;;;;26.23;15.57;;;9.90;70.20;;;;;;5073558;28;20038;-59
2022/03/10 10:36:16;;;;;;;23.65;10.75;;;10.10;69.10;;;;;;5073634;28;20055;-59
2022/03/10 10:38:44;;;;;;;18.75;9.18;;;10.30;68.60;;;;;;5073373;28;20026;-60
2022/03/10 10:41:22;;;;;;;12.13;8.50;;;10.40;69.30;;;;;;5071729;28;20111;-59
2022/03/10 10:44:07;;;;;;;13.82;9.18;;;10.70;67.70;;;;;;5073158;28;20021;-59
2022/03/10 10:46:38;;;;;;;16.88;9.05;;;10.90;64.70;;;;;;5073080;28;20464;-59
2022/03/10 10:49:04;;;;;;;18.20;8.18;;;11.70;64.10;;;;;;5073169;28;20024;-60
2022/03/10 10:51:57;;;;;;;12.35;8.23;;;13.10;59.30;;;;;;5071516;28;20111;-60
2022/03/10 10:54:26;;;;;;;17.38;8.60;;;14.30;53.90;;;;;;5072983;28;20044;-60
2022/03/10 10:57:01;;;;;;;14.18;8.30;;;15.10;48.60;;;;;;5072965;28;20174;-60
2022/03/10 10:59:37;;;;;;;12.50;8.18;;;15.90;45.50;;;;;;5071995;28;20073;-60
2022/03/10 11:02:11;;;;;;;16.58;8.57;;;16.70;44.50;;;;;;5073136;28;20020;-60
2022/03/10 11:04:40;;;;;;;22.58;9.55;;;17.20;41.50;;;;;;5072968;28;20021;-60
2022/03/10 11:07:09;;;;;;;11.85;8.23;;;16.90;40.80;;;;;;5073033;28;20025;-61
2022/03/10 11:09:35;;;;;;;16.83;9.82;;;18.00;38.80;;;;;;5072904;28;20025;-60
2022/03/10 11:12:02;;;;;;;12.38;8.85;;;17.40;37.30;;;;;;5072715;28;20355;-60
2022/03/10 11:14:27;;;;;;;11.75;7.93;;;17.00;37.30;;;;;;5072424;28;20190;-60
2022/03/10 11:16:54;;;;;;;13.18;7.63;;;16.40;36.10;;;;;;5072679;28;20477;-60
2022/03/10 11:19:25;;;;;;;16.90;8.82;;;17.00;35.30;;;;;;5072770;28;20016;-60
2022/03/10 11:22:22;;;;;;;13.88;7.47;;;17.20;35.20;;;;;;5072635;28;20368;-61
2022/03/10 11:25:06;;;;;;;22.30;8.57;;;17.70;34.60;;;;;;5072392;28;20069;-61
2022/03/10 11:27:36;;;;;;;14.80;8.00;;;17.90;34.60;;;;;;5072067;28;20024;-61
2022/03/10 11:30:06;;;;;;;15.60;7.50;;;17.50;35.80;;;;;;5041481;28;20115;-61
2022/03/10 11:32:32;;;;;;;14.02;8.48;;;18.80;34.70;;;;;;5041727;28;20132;-61
2022/03/10 11:35:00;;;;;;;14.23;8.35;;;18.60;33.70;;;;;;5042012;28;20460;-60
2022/03/10 11:37:42;;;;;;;14.25;7.63;;;18.50;33.70;;;;;;5040123;28;20487;-60
2022/03/10 11:40:09;;;;;;;12.40;7.60;;;19.30;32.40;;;;;;5041544;28;20043;-60
2022/03/10 11:42:36;;;;;;;16.52;7.70;;;19.70;31.90;;;;;;5039831;28;20035;-61
2022/03/10 11:45:19;;;;;;;14.80;7.72;;;20.30;31.50;;;;;;5041967;28;20078;-61
2022/03/10 11:47:47;;;;;;;15.20;7.70;;;20.80;31.20;;;;;;5041049;28;20029;-61
2022/03/10 11:50:24;;;;;;;13.18;7.38;;;20.10;31.70;;;;;;5041749;28;20032;-61
2022/03/10 11:53:00;;;;;;;9.63;7.20;;;20.40;31.40;;;;;;5041801;28;20398;-60
2022/03/10 11:55:43;;;;;;;14.43;8.07;;;20.20;30.80;;;;;;5041259;28;20039;-61
2022/03/10 11:58:13;;;;;;;9.57;7.10;;;19.70;31.30;;;;;;5041606;28;20050;-61
2022/03/10 12:00:39;;;;;;;11.63;7.93;;;19.80;31.40;;;;;;5040485;28;20037;-61
2022/03/10 12:03:06;;;;;;;13.80;6.70;;;20.30;30.70;;;;;;5040780;28;20334;-60
2022/03/10 12:05:59;;;;;;;27.02;7.45;;;20.60;30.30;;;;;;5041019;28;20060;-61
2022/03/10 12:08:35;;;;;;;21.05;7.63;;;19.80;30.50;;;;;;5039534;28;20025;-61
2022/03/10 12:11:03;;;;;;;9.98;7.40;;;20.00;29.90;;;;;;5040788;28;20570;-61
2022/03/10 12:13:40;;;;;;;12.23;7.30;;;19.90;30.90;;;;;;5040764;28;20127;-61
2022/03/10 12:16:28;;;;;;;9.95;7.32;;;21.00;29.30;;;;;;5040832;28;20440;-61
2022/03/10 12:18:55;;;;;;;21.35;7.70;;;20.80;30.10;;;;;;5040972;28;20116;-61
2022/03/10 12:21:26;;;;;;;14.70;6.47;;;20.60;29.70;;;;;;5040210;28;20032;-61
2022/03/10 12:23:56;;;;;;;14.55;8.32;;;20.60;29.70;;;;;;5040330;28;20025;-60
2022/03/10 12:26:27;;;;;;;12.68;7.57;;;21.40;29.00;;;;;;5041394;28;20388;-61
2022/03/10 12:29:00;;;;;;;9.90;7.35;;;21.30;28.90;;;;;;5040815;28;20054;-61
2022/03/10 12:31:28;;;;;;;16.08;8.30;;;20.30;29.60;;;;;;5040745;28;20040;-61
2022/03/10 12:33:59;;;;;;;22.40;8.38;;;21.80;29.00;;;;;;5040650;28;20035;-61
2022/03/10 12:36:34;;;;;;;13.68;7.43;;;21.80;28.40;;;;;;5040269;28;20544;-60
2022/03/10 12:39:04;;;;;;;15.20;8.35;;;20.60;29.50;;;;;;5038838;28;20138;-61
2022/03/10 12:41:36;;;;;;;9.10;7.80;;;20.50;29.50;;;;;;5041010;28;20021;-61